createdAt,value
2022-12-07T00:01:51.033Z,101086.69
2022-12-07T00:03:58.134Z,101087.66
2022-12-07T00:06:03.847Z,101080.78
2022-12-07T00:08:07.206Z,101088.44
2022-12-07T00:10:10.692Z,101084.50
2022-12-07T00:12:14.081Z,101076.84
2022-12-07T00:14:18.620Z,101087.25
2022-12-07T00:16:23.990Z,101086.47
2022-12-07T00:18:27.470Z,101076.13
2022-12-07T00:20:31.262Z,101077.53
2022-12-07T00:22:35.895Z,101074.97
2022-12-07T00:24:39.300Z,101071.91
2022-12-07T00:26:44.878Z,101065.44
2022-12-07T00:28:48.930Z,101078.88
2022-12-07T00:30:53.023Z,101068.84
2022-12-07T00:32:56.305Z,101059.38
2022-12-07T00:34:59.587Z,101068.03
2022-12-07T00:37:02.852Z,101078.53
2022-12-07T00:39:07.957Z,101074.75
2022-12-07T00:41:14.912Z,101077.50
2022-12-07T00:43:18.243Z,101068.53
2022-12-07T00:45:21.599Z,101073.88
2022-12-07T00:47:25.050Z,101073.31
2022-12-07T00:49:28.406Z,101063.63
2022-12-07T00:51:31.781Z,101068.69
2022-12-07T00:53:41.091Z,101067.91
2022-12-07T00:55:46.826Z,101067.97
2022-12-07T00:57:50.330Z,101074.03
2022-12-07T00:59:56.239Z,101040.88
2022-12-07T01:01:59.625Z,101067.16
2022-12-07T01:04:03.435Z,101065.31
2022-12-07T01:06:07.520Z,101045.84
2022-12-07T01:08:11.071Z,101054.66
2022-12-07T01:10:15.143Z,101071.41
2022-12-07T01:12:19.842Z,101058.75
2022-12-07T01:14:23.116Z,101059.66
2022-12-07T01:16:29.451Z,101060.91
2022-12-07T01:18:35.400Z,101034.31
2022-12-07T01:20:39.408Z,101070.53
2022-12-07T01:22:43.794Z,101061.25
2022-12-07T01:24:47.717Z,101072.66
2022-12-07T01:26:51.235Z,101066.69
2022-12-07T01:28:56.407Z,101064.56
2022-12-07T01:31:01.203Z,101076.13
2022-12-07T01:33:04.641Z,101066.69
2022-12-07T01:35:08.567Z,101063.53
2022-12-07T01:37:11.884Z,101060.50
2022-12-07T01:39:15.205Z,101072.66
2022-12-07T01:41:19.492Z,101063.09
2022-12-07T01:43:24.811Z,101065.19
2022-12-07T01:45:41.557Z,101062.03
2022-12-07T01:47:48.902Z,101068.09
2022-12-07T01:49:52.427Z,101059.66
2022-12-07T01:52:02.415Z,101058.81
2022-12-07T01:54:05.847Z,101044.03
2022-12-07T01:56:11.603Z,101049.03
2022-12-07T01:58:15.930Z,101058.91
2022-12-07T02:00:20.654Z,101044.13
2022-12-07T02:02:29.792Z,101041.56
2022-12-07T02:04:34.198Z,101049.69
2022-12-07T02:06:38.617Z,101060.16
2022-12-07T02:08:43.516Z,101035.97
2022-12-07T02:10:46.845Z,101047.69
2022-12-07T02:12:55.636Z,101057.47
2022-12-07T02:14:58.980Z,101053.03
2022-12-07T02:17:14.001Z,101050.91
2022-12-07T02:19:49.497Z,101050.50
2022-12-07T02:22:00.968Z,101040.69
2022-12-07T02:24:38.561Z,101040.78
2022-12-07T02:27:23.881Z,101040.22
2022-12-07T02:29:31.979Z,101030.38
2022-12-07T02:31:35.656Z,101036.72
2022-12-07T02:33:45.465Z,101045.25
2022-12-07T02:35:57.879Z,101039.13
2022-12-07T02:38:09.270Z,101033.78
2022-12-07T02:40:19.022Z,101026.75
2022-12-07T02:42:28.760Z,101023.03
2022-12-07T02:44:34.754Z,101033.69
2022-12-07T02:46:41.802Z,101037.66
2022-12-07T02:48:46.936Z,101043.16
2022-12-07T02:50:51.151Z,101042.34
2022-12-07T02:52:54.428Z,101033.88
2022-12-07T02:54:57.714Z,101030.31
2022-12-07T02:57:11.268Z,101031.28
2022-12-07T02:59:25.035Z,101032.66
2022-12-07T03:01:39.215Z,101031.94
2022-12-07T03:03:49.226Z,101001.00
2022-12-07T03:06:06.430Z,101037.41
2022-12-07T03:08:19.600Z,101041.63
2022-12-07T03:10:29.665Z,101044.13
2022-12-07T03:12:37.165Z,101042.59
2022-12-07T03:14:45.449Z,101040.09
2022-12-07T03:16:56.904Z,101039.84
2022-12-07T03:19:04.061Z,101020.31
2022-12-07T03:21:13.665Z,101039.69
2022-12-07T03:23:20.448Z,101042.28
2022-12-07T03:25:24.378Z,101044.38
2022-12-07T03:27:33.511Z,101044.66
2022-12-07T03:29:43.239Z,101042.84
2022-12-07T03:31:53.115Z,101046.69
2022-12-07T03:34:02.434Z,101025.53
2022-12-07T03:36:10.758Z,101040.72
2022-12-07T03:38:20.163Z,101036.94
2022-12-07T03:40:32.800Z,101035.09
2022-12-07T03:42:36.411Z,101042.59
2022-12-07T03:44:42.960Z,101032.03
2022-12-07T03:46:55.610Z,101029.66
2022-12-07T03:49:04.682Z,101039.53
2022-12-07T03:51:15.950Z,101040.09
2022-12-07T03:53:25.066Z,101044.63
2022-12-07T03:55:32.040Z,101043.72
2022-12-07T03:57:38.003Z,101049.03
2022-12-07T03:59:42.194Z,101029.22
2022-12-07T04:01:46.144Z,101044.34
2022-12-07T04:03:50.915Z,101043.53
2022-12-07T04:05:54.313Z,101034.72
2022-12-07T04:07:58.260Z,101040.53
2022-12-07T04:10:02.025Z,101029.56
2022-12-07T04:12:06.489Z,101036.69
2022-12-07T04:14:21.927Z,101036.13
2022-12-07T04:16:25.337Z,101029.25
2022-12-07T04:18:28.701Z,101039.44
2022-12-07T04:20:33.428Z,101034.16
2022-12-07T04:22:36.900Z,101037.59
2022-12-07T04:24:40.884Z,101030.63
2022-12-07T04:26:45.229Z,101035.84
2022-12-07T04:28:48.568Z,101037.75
2022-12-07T04:30:51.944Z,101026.69
2022-12-07T04:32:55.262Z,101027.56
2022-12-07T04:34:59.756Z,101040.66
2022-12-07T04:37:04.396Z,101030.47
2022-12-07T04:39:09.461Z,101035.81
2022-12-07T04:41:12.735Z,101033.78
2022-12-07T04:43:16.044Z,101038.47
2022-12-07T04:45:19.394Z,101041.53
2022-12-07T04:47:22.773Z,101016.88
2022-12-07T04:49:26.961Z,101033.63
2022-12-07T04:51:31.310Z,101033.47
2022-12-07T04:53:35.963Z,101029.91
2022-12-07T04:55:39.308Z,101031.88
2022-12-07T04:57:42.615Z,101031.03
2022-12-07T04:59:46.221Z,101030.06
2022-12-07T05:01:49.733Z,101017.88
2022-12-07T05:03:53.160Z,101020.13
2022-12-07T05:05:56.471Z,101024.41
2022-12-07T05:07:59.867Z,101028.06
2022-12-07T05:10:05.453Z,101019.72
2022-12-07T05:12:08.841Z,101021.66
2022-12-07T05:14:15.520Z,101019.72
2022-12-07T05:16:19.404Z,101018.97
2022-12-07T05:18:22.884Z,101020.88
2022-12-07T05:20:26.423Z,101030.38
2022-12-07T05:22:30.062Z,101023.34
2022-12-07T05:24:33.554Z,101027.97
2022-12-07T05:26:38.556Z,101027.56
2022-12-07T05:28:42.053Z,101037.25
2022-12-07T05:30:45.669Z,101032.34
2022-12-07T05:32:49.231Z,101026.03
2022-12-07T05:34:52.719Z,101030.16
2022-12-07T05:36:56.280Z,101026.09
2022-12-07T05:39:00.090Z,101039.75
2022-12-07T05:41:04.520Z,101033.38
2022-12-07T05:43:09.438Z,101016.06
2022-12-07T05:45:12.881Z,101027.47
2022-12-07T05:47:17.500Z,101031.91
2022-12-07T05:49:21.202Z,101008.31
2022-12-07T05:51:24.809Z,101032.91
2022-12-07T05:53:28.255Z,101022.22
2022-12-07T05:55:31.863Z,101031.41
2022-12-07T05:57:35.469Z,101026.09
2022-12-07T05:59:39.186Z,101016.47
2022-12-07T06:01:42.580Z,101023.34
2022-12-07T06:03:46.418Z,101028.84
2022-12-07T06:05:49.795Z,101033.53
2022-12-07T06:07:53.164Z,101030.47
2022-12-07T06:09:56.489Z,101027.03
2022-12-07T06:12:18.093Z,101029.88
2022-12-07T06:14:21.412Z,101016.97
2022-12-07T06:16:26.236Z,101018.81
2022-12-07T06:18:29.586Z,101029.88
2022-12-07T06:20:33.031Z,101016.16
2022-12-07T06:22:36.336Z,101022.22
2022-12-07T06:24:40.448Z,101009.78
2022-12-07T06:26:44.720Z,101032.63
2022-12-07T06:28:48.159Z,101029.50
2022-12-07T06:30:59.211Z,101038.25
2022-12-07T06:33:03.908Z,101036.63
2022-12-07T06:35:07.857Z,101041.78
2022-12-07T06:37:11.157Z,101037.06
2022-12-07T06:39:14.468Z,101047.69
2022-12-07T06:41:19.092Z,101045.00
2022-12-07T06:43:22.902Z,101051.16
2022-12-07T06:45:26.240Z,101039.34
2022-12-07T06:47:40.508Z,101034.34
2022-12-07T06:49:45.602Z,101035.81
2022-12-07T06:51:49.042Z,101032.81
2022-12-07T06:53:53.782Z,101033.78
2022-12-07T06:55:57.186Z,101041.91
2022-12-07T06:58:00.521Z,101038.59
2022-12-07T07:00:05.791Z,101042.66
2022-12-07T07:02:10.755Z,101046.75
2022-12-07T07:04:14.151Z,101037.22
2022-12-07T07:06:18.865Z,101046.19
2022-12-07T07:08:23.085Z,101044.59
2022-12-07T07:10:27.023Z,101050.00
2022-12-07T07:12:30.393Z,101053.75
2022-12-07T07:14:33.938Z,101052.69
2022-12-07T07:16:37.268Z,101053.75
2022-12-07T07:18:40.648Z,101052.13
2022-12-07T07:20:44.073Z,101035.13
2022-12-07T07:22:48.741Z,101045.69
2022-12-07T07:24:52.027Z,101049.63
2022-12-07T07:26:55.908Z,101047.41
2022-12-07T07:28:59.275Z,101043.16
2022-12-07T07:31:02.744Z,101039.44
2022-12-07T07:33:07.271Z,101028.72
2022-12-07T07:35:10.723Z,101048.97
2022-12-07T07:37:18.707Z,101052.41
2022-12-07T07:39:26.489Z,101047.28
2022-12-07T07:41:29.974Z,101028.53
2022-12-07T07:43:34.493Z,101045.75
2022-12-07T07:45:38.357Z,101043.72
2022-12-07T07:47:42.623Z,101043.09
2022-12-07T07:49:48.292Z,101045.56
2022-12-07T07:51:51.963Z,101039.34
2022-12-07T07:53:55.725Z,101056.25
2022-12-07T07:56:00.413Z,101050.00
2022-12-07T07:58:03.736Z,101053.59
2022-12-07T08:00:09.503Z,101052.59
2022-12-07T08:02:17.478Z,101067.06
2022-12-07T08:04:20.819Z,101058.44
2022-12-07T08:06:29.037Z,101062.16
2022-12-07T08:08:35.240Z,101064.25
2022-12-07T08:10:38.651Z,101055.03
2022-12-07T08:13:03.120Z,101023.50
2022-12-07T08:15:07.435Z,101044.66
2022-12-07T08:17:10.769Z,101046.00
2022-12-07T08:19:14.136Z,101069.66
2022-12-07T08:21:17.946Z,101064.31
2022-12-07T08:23:24.326Z,101066.91
2022-12-07T08:25:34.231Z,101070.16
2022-12-07T08:27:37.670Z,101068.38
2022-12-07T08:29:42.420Z,101056.81
2022-12-07T08:31:45.739Z,101068.53
2022-12-07T08:33:49.756Z,101068.25
2022-12-07T08:35:53.040Z,101076.19
2022-12-07T08:37:58.264Z,101084.22
2022-12-07T08:40:02.047Z,101076.19
2022-12-07T08:42:06.048Z,101080.31
2022-12-07T08:44:09.404Z,101077.09
2022-12-07T08:46:21.101Z,101080.03
2022-12-07T08:48:25.826Z,101081.72
2022-12-07T08:50:29.676Z,101082.69
2022-12-07T08:52:33.870Z,101085.19
2022-12-07T08:54:40.739Z,101086.41
2022-12-07T08:56:44.914Z,101082.47
2022-12-07T08:58:48.291Z,101087.19
2022-12-07T09:00:51.806Z,101076.38
2022-12-07T09:02:56.670Z,101086.19
2022-12-07T09:05:01.593Z,101076.72
2022-12-07T09:07:05.238Z,101079.22
2022-12-07T09:09:10.199Z,101073.53
2022-12-07T09:11:13.640Z,101064.06
2022-12-07T09:13:17.152Z,101075.78
2022-12-07T09:15:20.449Z,101072.16
2022-12-07T09:17:24.230Z,101061.72
2022-12-07T09:19:29.142Z,101067.06
2022-12-07T09:21:32.659Z,101050.97
2022-12-07T09:23:35.974Z,101073.28
2022-12-07T09:25:40.129Z,101081.13
2022-12-07T09:27:43.838Z,101070.72
2022-12-07T09:29:47.155Z,101074.72
2022-12-07T09:31:50.567Z,101086.06
2022-12-07T09:33:57.345Z,101070.72
2022-12-07T09:36:02.090Z,101082.16
2022-12-07T09:38:05.422Z,101076.53
2022-12-07T09:40:09.745Z,101072.72
2022-12-07T09:42:28.883Z,101082.00
2022-12-07T09:44:34.652Z,101073.03
2022-12-07T09:46:41.068Z,101072.28
2022-12-07T09:48:45.837Z,101075.13
2022-12-07T09:50:50.396Z,101080.63
2022-12-07T09:52:58.093Z,101079.84
2022-12-07T09:55:01.668Z,101067.84
2022-12-07T09:57:05.480Z,101064.06
2022-12-07T09:59:15.459Z,101066.91
2022-12-07T10:01:21.736Z,101059.03
2022-12-07T10:03:25.434Z,101067.59
2022-12-07T10:05:32.528Z,101007.06
2022-12-07T10:07:36.028Z,101066.38
2022-12-07T10:09:40.774Z,101060.56
2022-12-07T10:12:07.338Z,101057.34
2022-12-07T10:14:15.225Z,101051.69
2022-12-07T10:16:43.460Z,101058.56
2022-12-07T10:18:46.818Z,101056.59
2022-12-07T10:20:50.511Z,101052.22
2022-12-07T10:22:59.075Z,101053.13
2022-12-07T10:25:11.159Z,101045.44
2022-12-07T10:27:21.769Z,101045.34
2022-12-07T10:29:32.039Z,101042.91
2022-12-07T10:31:40.957Z,101046.56
2022-12-07T10:33:52.083Z,101022.22
2022-12-07T10:35:55.574Z,101038.78
2022-12-07T10:38:01.457Z,101036.59
2022-12-07T10:40:27.765Z,101033.88
2022-12-07T10:42:32.739Z,101024.06
2022-12-07T10:44:36.703Z,101021.69
2022-12-07T10:46:49.343Z,101029.44
2022-12-07T10:49:05.988Z,101025.16
2022-12-07T10:51:17.889Z,101029.75
2022-12-07T10:53:35.502Z,100995.19
2022-12-07T10:55:57.241Z,101019.00
2022-12-07T10:58:22.437Z,101016.81
2022-12-07T11:00:26.848Z,101018.28
2022-12-07T11:02:47.823Z,101006.94
2022-12-07T11:05:01.788Z,100982.97
2022-12-07T11:07:13.569Z,101000.31
2022-12-07T11:10:07.957Z,100995.78
2022-12-07T11:12:15.627Z,100992.25
2022-12-07T11:14:27.197Z,100995.13
2022-12-07T11:16:41.348Z,100991.28
2022-12-07T11:18:54.766Z,100987.50
2022-12-07T11:21:06.360Z,100985.56
2022-12-07T11:23:20.400Z,100987.22
2022-12-07T11:25:33.293Z,100989.56
2022-12-07T11:27:43.349Z,100985.53
2022-12-07T11:29:58.068Z,100972.47
2022-12-07T11:32:14.317Z,100976.47
2022-12-07T11:34:27.170Z,100978.63
2022-12-07T11:36:39.737Z,100978.19
2022-12-07T11:38:48.322Z,100971.31
2022-12-07T11:40:55.423Z,100973.97
2022-12-07T11:43:06.339Z,100966.47
2022-12-07T11:45:16.785Z,100969.91
2022-12-07T11:47:27.511Z,100973.03
2022-12-07T11:49:43.041Z,100955.13
2022-12-07T11:51:51.108Z,100963.53
2022-12-07T11:53:58.939Z,100950.53
2022-12-07T11:56:06.223Z,100954.78
2022-12-07T11:58:24.386Z,100949.91
2022-12-07T12:00:28.057Z,100940.22
2022-12-07T12:02:38.877Z,100952.81
2022-12-07T12:04:53.051Z,100944.72
2022-12-07T12:06:56.673Z,100945.25
2022-12-07T12:11:45.896Z,100935.34
2022-12-07T12:14:36.900Z,100951.19
2022-12-07T12:17:00.449Z,100946.69
2022-12-07T12:19:20.162Z,100949.88
2022-12-07T12:21:29.731Z,100949.53
2022-12-07T12:23:42.511Z,100943.06
2022-12-07T12:25:48.836Z,100940.53
2022-12-07T12:27:54.074Z,100939.25
2022-12-07T12:30:01.185Z,100933.16
2022-12-07T12:32:15.736Z,100927.41
2022-12-07T12:34:34.736Z,100925.03
2022-12-07T12:36:49.297Z,100919.50
2022-12-07T12:39:09.440Z,100912.06
2022-12-07T12:42:09.892Z,100927.56
2022-12-07T12:44:41.809Z,100920.75
2022-12-07T12:46:54.580Z,100916.75
2022-12-07T12:49:46.333Z,100927.63
2022-12-07T12:51:50.873Z,100905.81
2022-12-07T12:53:54.300Z,100917.19
2022-12-07T12:56:31.966Z,100918.38
2022-12-07T12:58:44.471Z,100921.44
2022-12-07T13:00:48.535Z,100923.72
2022-12-07T13:02:54.325Z,100903.22
2022-12-07T13:05:01.747Z,100914.75
2022-12-07T13:07:05.615Z,100900.97
2022-12-07T13:09:23.699Z,100908.09
2022-12-07T13:11:31.929Z,100904.03
2022-12-07T13:13:37.364Z,100906.78
2022-12-07T13:15:43.382Z,100901.69
2022-12-07T13:18:24.020Z,100886.47
2022-12-07T13:20:52.568Z,100914.09
2022-12-07T13:23:01.205Z,100899.91
2022-12-07T13:25:10.872Z,100908.28
2022-12-07T13:27:15.024Z,100901.06
2022-12-07T13:29:21.054Z,100886.63
2022-12-07T13:31:33.640Z,100868.53
2022-12-07T13:33:37.772Z,100878.59
2022-12-07T13:35:41.074Z,100880.63
2022-12-07T13:37:46.379Z,100890.38
2022-12-07T13:39:52.828Z,100883.94
2022-12-07T13:41:57.985Z,100876.72
2022-12-07T13:44:05.416Z,100869.38
2022-12-07T13:46:10.293Z,100877.81
2022-12-07T13:48:18.049Z,100876.41
2022-12-07T13:50:26.958Z,100871.63
2022-12-07T13:52:31.672Z,100870.53
2022-12-07T13:54:46.281Z,100861.56
2022-12-07T13:56:53.176Z,100863.41
2022-12-07T13:58:57.255Z,100868.78
2022-12-07T14:01:01.550Z,100872.53
2022-12-07T14:03:31.175Z,100862.72
2022-12-07T14:05:36.603Z,100864.34
2022-12-07T14:07:51.466Z,100858.34
2022-12-07T14:10:00.094Z,100843.06
2022-12-07T14:12:08.547Z,100846.69
2022-12-07T14:14:17.906Z,100861.56
2022-12-07T14:16:28.598Z,100844.22
2022-12-07T14:18:40.459Z,100853.88
2022-12-07T14:20:43.998Z,100855.38
2022-12-07T14:22:57.177Z,100849.03
2022-12-07T14:25:03.228Z,100849.94
2022-12-07T14:27:19.331Z,100845.41
2022-12-07T14:29:34.689Z,100841.16
2022-12-07T14:31:38.084Z,100837.00
2022-12-07T14:33:43.922Z,100847.06
2022-12-07T14:35:47.230Z,100832.09
2022-12-07T14:37:51.744Z,100833.09
2022-12-07T14:39:55.039Z,100831.22
2022-12-07T14:41:58.401Z,100831.44
2022-12-07T14:44:22.348Z,100829.25
2022-12-07T14:46:25.368Z,100831.31
2022-12-07T14:55:29.419Z,100821.97
2022-12-07T14:57:32.737Z,100828.16
2022-12-07T14:59:39.191Z,100826.47
2022-12-07T15:01:45.166Z,100826.75
2022-12-07T15:03:48.630Z,100821.75
2022-12-07T15:05:51.980Z,100818.69
2022-12-07T15:07:56.922Z,100809.63
2022-12-07T15:10:00.266Z,100820.78
2022-12-07T15:12:04.652Z,100822.63
2022-12-07T15:14:12.245Z,100821.75
2022-12-07T15:16:21.414Z,100822.50
2022-12-07T15:18:26.263Z,100818.88
2022-12-07T15:20:29.589Z,100803.41
2022-12-07T15:22:38.206Z,100814.34
2022-12-07T15:24:43.492Z,100817.41
2022-12-07T15:26:48.007Z,100823.81
2022-12-07T15:28:51.492Z,100818.19
2022-12-07T15:30:54.803Z,100808.22
2022-12-07T15:32:58.146Z,100816.78
2022-12-07T15:35:02.158Z,100807.59
2022-12-07T15:37:05.858Z,100798.38
2022-12-07T15:39:14.693Z,100805.31
2022-12-07T15:41:20.222Z,100810.50
2022-12-07T15:43:41.417Z,100809.69
2022-12-07T15:45:44.722Z,100812.66
2022-12-07T15:48:26.845Z,100809.09
2022-12-07T15:50:14.400Z,100809.84
2022-12-07T15:52:17.902Z,100808.22
2022-12-07T15:54:23.642Z,100802.91
2022-12-07T15:56:28.343Z,100803.63
2022-12-07T15:58:33.163Z,100789.94
2022-12-07T16:00:36.572Z,100759.88
2022-12-07T16:02:40.376Z,100803.13
2022-12-07T16:04:43.842Z,100802.53
2022-12-07T16:06:47.455Z,100800.75
2022-12-07T16:08:50.834Z,100800.91
2022-12-07T16:10:54.181Z,100799.28
2022-12-07T16:12:58.989Z,100793.59
2022-12-07T16:15:02.703Z,100787.00
2022-12-07T16:17:06.737Z,100796.97
2022-12-07T16:19:10.279Z,100798.34
2022-12-07T16:21:13.877Z,100790.66
2022-12-07T16:23:17.780Z,100801.16
2022-12-07T16:25:21.187Z,100797.59
2022-12-07T16:27:24.501Z,100794.88
2022-12-07T16:29:29.275Z,100791.69
2022-12-07T16:31:32.798Z,100796.13
2022-12-07T16:33:36.497Z,100795.31
2022-12-07T16:35:41.804Z,100791.50
2022-12-07T16:37:45.352Z,100796.81
2022-12-07T16:39:48.689Z,100790.97
2022-12-07T16:41:53.740Z,100787.09
2022-12-07T16:43:57.059Z,100786.16
2022-12-07T16:46:01.954Z,100777.16
2022-12-07T16:48:05.915Z,100785.53
2022-12-07T16:50:09.908Z,100791.53
2022-12-07T16:52:21.444Z,100787.41
2022-12-07T16:54:24.963Z,100780.44
2022-12-07T16:56:30.005Z,100784.38
2022-12-07T16:58:33.951Z,100788.31
2022-12-07T17:00:38.400Z,100761.13
2022-12-07T17:02:43.164Z,100778.69
2022-12-07T17:04:46.443Z,100776.38
2022-12-07T17:06:49.725Z,100772.06
2022-12-07T17:08:53.944Z,100772.69
2022-12-07T17:10:57.338Z,100762.19
2022-12-07T17:13:00.660Z,100763.34
2022-12-07T17:15:18.803Z,100763.84
2022-12-07T17:17:22.185Z,100763.59
2022-12-07T17:19:26.852Z,100766.28
2022-12-07T17:21:30.362Z,100711.75
2022-12-07T17:23:35.128Z,100769.41
2022-12-07T17:25:38.443Z,100772.34
2022-12-07T17:27:42.250Z,100765.63
2022-12-07T17:29:45.561Z,100770.06
2022-12-07T17:31:51.950Z,100760.31
2022-12-07T17:33:55.592Z,100758.16
2022-12-07T17:36:00.243Z,100752.91
2022-12-07T17:38:03.655Z,100741.31
2022-12-07T17:40:08.155Z,100744.25
2022-12-07T17:42:29.153Z,100751.44
2022-12-07T17:44:32.961Z,100745.41
2022-12-07T17:46:36.284Z,100741.13
2022-12-07T17:48:39.691Z,100742.34
2022-12-07T17:51:00.521Z,100741.28
2022-12-07T17:53:14.088Z,100739.38
2022-12-07T17:55:17.759Z,100743.19
2022-12-07T17:57:21.039Z,100739.75
2022-12-07T17:59:24.536Z,100734.34
2022-12-07T18:01:34.210Z,100733.91
2022-12-07T18:03:37.959Z,100728.16
2022-12-07T18:05:45.070Z,100715.72
2022-12-07T18:07:48.714Z,100719.16
2022-12-07T18:09:53.570Z,100712.19
2022-12-07T18:11:56.905Z,100725.94
2022-12-07T18:14:00.388Z,100711.69
2022-12-07T18:16:05.116Z,100691.38
2022-12-07T18:18:08.630Z,100713.91
2022-12-07T18:20:12.947Z,100711.03
2022-12-07T18:22:16.441Z,100715.22
2022-12-07T18:24:19.906Z,100712.69
2022-12-07T18:26:26.827Z,100704.13
2022-12-07T18:28:31.097Z,100707.97
2022-12-07T18:31:06.508Z,100713.44
2022-12-07T18:32:58.513Z,100704.63
2022-12-07T18:35:02.313Z,100705.31
2022-12-07T18:37:05.941Z,100712.63
2022-12-07T18:39:10.149Z,100667.06
2022-12-07T18:41:15.603Z,100702.19
2022-12-07T18:43:20.332Z,100697.44
2022-12-07T18:45:23.670Z,100700.22
2022-12-07T18:47:27.122Z,100708.19
2022-12-07T18:49:30.958Z,100691.59
2022-12-07T18:51:34.316Z,100706.41
2022-12-07T18:53:38.348Z,100706.28
2022-12-07T18:55:41.677Z,100703.91
2022-12-07T18:57:45.067Z,100693.19
2022-12-07T18:59:49.600Z,100698.38
2022-12-07T19:01:54.821Z,100696.22
2022-12-07T19:03:58.533Z,100696.81
2022-12-07T19:06:07.233Z,100694.81
2022-12-07T19:08:10.681Z,100695.78
2022-12-07T19:10:15.364Z,100688.50
2022-12-07T19:12:18.773Z,100695.31
2022-12-07T19:14:25.110Z,100692.47
2022-12-07T19:16:29.859Z,100694.63
2022-12-07T19:18:33.733Z,100691.88
2022-12-07T19:20:37.119Z,100684.94
2022-12-07T19:22:40.765Z,100692.81
2022-12-07T19:24:46.403Z,100686.06
2022-12-07T19:26:49.788Z,100683.94
2022-12-07T19:28:53.135Z,100687.75
2022-12-07T19:30:56.457Z,100686.09
2022-12-07T19:33:01.143Z,100683.81
2022-12-07T19:35:05.552Z,100682.03
2022-12-07T19:37:11.393Z,100686.03
2022-12-07T19:39:15.866Z,100673.41
2022-12-07T19:41:39.199Z,100669.31
2022-12-07T19:43:42.545Z,100670.25
2022-12-07T19:45:45.948Z,100674.81
2022-12-07T19:47:49.441Z,100676.44
2022-12-07T19:49:54.498Z,100667.34
2022-12-07T19:52:00.595Z,100673.56
2022-12-07T19:54:04.177Z,100671.81
2022-12-07T19:56:08.528Z,100668.56
2022-12-07T19:58:11.882Z,100675.84
2022-12-07T20:00:16.017Z,100666.66
2022-12-07T20:02:19.411Z,100670.50
2022-12-07T20:04:24.829Z,100666.53
2022-12-07T20:06:29.516Z,100670.34
2022-12-07T20:08:32.851Z,100662.50
2022-12-07T20:10:39.738Z,100660.06
2022-12-07T20:13:00.691Z,100663.00
2022-12-07T20:15:04.484Z,100661.34
2022-12-07T20:17:08.189Z,100664.69
2022-12-07T20:19:11.845Z,100663.44
2022-12-07T20:21:15.436Z,100651.75
2022-12-07T20:23:20.146Z,100646.00
2022-12-07T20:25:23.482Z,100631.16
2022-12-07T20:27:26.824Z,100657.22
2022-12-07T20:29:30.227Z,100646.13
2022-12-07T20:31:33.656Z,100649.19
2022-12-07T20:33:37.083Z,100645.06
2022-12-07T20:35:40.481Z,100651.03
2022-12-07T20:37:43.820Z,100645.19
2022-12-07T20:39:48.582Z,100641.44
2022-12-07T20:42:09.625Z,100643.06
2022-12-07T20:44:14.286Z,100643.28
2022-12-07T20:46:17.758Z,100634.19
2022-12-07T20:48:21.587Z,100642.97
2022-12-07T20:50:25.227Z,100643.72
2022-12-07T20:52:28.675Z,100640.41
2022-12-07T20:54:32.130Z,100640.47
2022-12-07T20:56:37.244Z,100641.28
2022-12-07T20:58:40.590Z,100638.19
2022-12-07T21:00:43.930Z,100640.78
2022-12-07T21:02:47.293Z,100632.22
2022-12-07T21:04:50.639Z,100636.50
2022-12-07T21:06:54.117Z,100639.59
2022-12-07T21:08:59.424Z,100635.75
2022-12-07T21:11:08.548Z,100634.59
2022-12-07T21:13:13.222Z,100624.88
2022-12-07T21:15:16.572Z,100628.38
2022-12-07T21:17:19.913Z,100621.22
2022-12-07T21:19:24.883Z,100621.56
2022-12-07T21:21:28.213Z,100618.38
2022-12-07T21:23:31.691Z,100626.16
2022-12-07T21:25:35.050Z,100623.41
2022-12-07T21:27:38.403Z,100622.22
2022-12-07T21:29:44.589Z,100611.91
2022-12-07T21:31:48.631Z,100616.41
2022-12-07T21:33:52.212Z,100605.66
2022-12-07T21:35:55.569Z,100618.16
2022-12-07T21:37:58.846Z,100610.88
2022-12-07T21:40:02.188Z,100612.19
2022-12-07T21:42:05.815Z,100609.84
2022-12-07T21:44:10.524Z,100583.66
2022-12-07T21:46:16.163Z,100606.34
2022-12-07T21:48:20.923Z,100609.63
2022-12-07T21:50:24.389Z,100597.41
2022-12-07T21:52:27.725Z,100595.38
2022-12-07T21:54:31.198Z,100586.59
2022-12-07T21:56:36.978Z,100572.72
2022-12-07T21:58:40.305Z,100596.84
2022-12-07T22:00:43.677Z,100594.44
2022-12-07T22:02:48.348Z,100596.25
2022-12-07T22:04:51.719Z,100591.25
2022-12-07T22:06:56.906Z,100597.94
2022-12-07T22:09:00.476Z,100599.66
2022-12-07T22:11:03.840Z,100594.06
2022-12-07T22:13:07.162Z,100602.97
2022-12-07T22:15:10.363Z,100601.13
2022-12-07T22:17:13.870Z,100598.69
2022-12-07T22:19:18.901Z,100595.44
2022-12-07T22:21:22.711Z,100575.16
2022-12-07T22:23:26.160Z,100577.06
2022-12-07T22:25:29.540Z,100591.75
2022-12-07T22:27:33.662Z,100595.22
2022-12-07T22:29:37.050Z,100593.88
2022-12-07T22:31:41.950Z,100588.34
2022-12-07T22:33:45.703Z,100574.47
2022-12-07T22:35:54.650Z,100568.28
2022-12-07T22:37:57.987Z,100581.63
2022-12-07T22:40:01.478Z,100589.97
2022-12-07T22:42:04.939Z,100574.84
2022-12-07T22:44:08.871Z,100584.00
2022-12-07T22:46:12.267Z,100575.16
2022-12-07T22:48:15.897Z,100578.78
2022-12-07T22:50:19.259Z,100567.75
2022-12-07T22:52:23.896Z,100567.34
2022-12-07T22:54:27.225Z,100572.66
2022-12-07T22:56:33.437Z,100561.00
2022-12-07T22:58:36.737Z,100563.34
2022-12-07T23:00:40.125Z,100562.19
2022-12-07T23:02:43.514Z,100554.94
2022-12-07T23:04:46.888Z,100541.72
2022-12-07T23:06:50.221Z,100547.13
2022-12-07T23:08:57.638Z,100546.16
2022-12-07T23:11:00.957Z,100546.75
2022-12-07T23:13:21.961Z,100544.16
2022-12-07T23:15:25.320Z,100538.91
2022-12-07T23:17:28.808Z,100536.28
2022-12-07T23:19:32.285Z,100533.75
2022-12-07T23:21:36.122Z,100514.19
2022-12-07T23:23:39.507Z,100524.81
2022-12-07T23:25:44.133Z,100531.13
2022-12-07T23:27:47.470Z,100535.53
2022-12-07T23:29:50.903Z,100541.59
2022-12-07T23:31:54.281Z,100533.41
2022-12-07T23:33:57.699Z,100524.31
2022-12-07T23:36:08.646Z,100510.44
2022-12-07T23:38:12.014Z,100522.75
2022-12-07T23:40:15.373Z,100508.00
2022-12-07T23:42:20.148Z,100515.41
2022-12-07T23:44:23.602Z,100507.16
2022-12-07T23:46:29.093Z,100499.66
2022-12-07T23:48:32.543Z,100514.50
2022-12-07T23:50:35.870Z,100503.28
2022-12-07T23:52:39.204Z,100492.00
2022-12-07T23:54:42.513Z,100497.69
2022-12-07T23:56:45.862Z,100488.16
2022-12-07T23:58:51.776Z,100492.75
